sensor_id;sensor_type;location;lat;lon;timestamp;pressure;altitude;pressure_sealevel;temperature;humidity
14295;BME280;7231;59.370;18.016;2022-11-23T00:00:46;101216.28;;;1.76;94.08
14295;BME280;7231;59.370;18.016;2022-11-23T00:03:14;101209.91;;;1.71;93.97
14295;BME280;7231;59.370;18.016;2022-11-23T00:05:44;101209.47;;;1.65;94.29
14295;BME280;7231;59.370;18.016;2022-11-23T00:08:11;101208.16;;;1.58;94.15
14295;BME280;7231;59.370;18.016;2022-11-23T00:10:40;101202.34;;;1.49;94.38
14295;BME280;7231;59.370;18.016;2022-11-23T00:13:07;101209.09;;;1.47;94.41
14295;BME280;7231;59.370;18.016;2022-11-23T00:15:35;101215.63;;;1.42;94.47
14295;BME280;7231;59.370;18.016;2022-11-23T00:18:03;101225.75;;;1.39;94.25
14295;BME280;7231;59.370;18.016;2022-11-23T00:20:31;101141.44;;;0.91;94.21
14295;BME280;7231;59.370;18.016;2022-11-23T00:23:00;101225.53;;;1.36;94.84
14295;BME280;7231;59.370;18.016;2022-11-23T00:25:28;101235.50;;;1.43;94.98
14295;BME280;7231;59.370;18.016;2022-11-23T00:27:56;101232.94;;;1.43;94.74
14295;BME280;7231;59.370;18.016;2022-11-23T00:30:24;101200.06;;;1.29;94.14
14295;BME280;7231;59.370;18.016;2022-11-23T00:32:53;101238.53;;;1.49;94.35
14295;BME280;7231;59.370;18.016;2022-11-23T00:35:21;101235.16;;;1.50;94.82
14295;BME280;7231;59.370;18.016;2022-11-23T00:37:48;101237.06;;;1.53;94.22
14295;BME280;7231;59.370;18.016;2022-11-23T00:40:18;101227.06;;;1.46;94.66
14295;BME280;7231;59.370;18.016;2022-11-23T00:42:46;101244.13;;;1.55;94.52
14295;BME280;7231;59.370;18.016;2022-11-23T00:45:14;101219.53;;;1.49;94.42
14295;BME280;7231;59.370;18.016;2022-11-23T00:47:42;101227.72;;;1.55;94.30
14295;BME280;7231;59.370;18.016;2022-11-23T00:50:09;101224.13;;;1.53;93.72
14295;BME280;7231;59.370;18.016;2022-11-23T00:52:37;101212.25;;;1.43;94.04
14295;BME280;7231;59.370;18.016;2022-11-23T00:55:06;101227.28;;;1.49;93.93
14295;BME280;7231;59.370;18.016;2022-11-23T00:57:35;101199.13;;;1.40;94.17
14295;BME280;7231;59.370;18.016;2022-11-23T01:00:04;101215.94;;;1.47;94.08
14295;BME280;7231;59.370;18.016;2022-11-23T01:02:33;101215.28;;;1.49;93.25
14295;BME280;7231;59.370;18.016;2022-11-23T01:05:02;101212.47;;;1.46;93.58
14295;BME280;7231;59.370;18.016;2022-11-23T01:07:30;101209.31;;;1.50;93.17
14295;BME280;7231;59.370;18.016;2022-11-23T01:09:58;101209.41;;;1.52;93.72
14295;BME280;7231;59.370;18.016;2022-11-23T01:12:27;101207.72;;;1.52;93.07
14295;BME280;7231;59.370;18.016;2022-11-23T01:14:57;101208.63;;;1.53;93.44
14295;BME280;7231;59.370;18.016;2022-11-23T01:17:25;101211.31;;;1.54;92.91
14295;BME280;7231;59.370;18.016;2022-11-23T01:19:53;101210.63;;;1.57;93.23
14295;BME280;7231;59.370;18.016;2022-11-23T01:22:21;101208.16;;;1.58;93.58
14295;BME280;7231;59.370;18.016;2022-11-23T01:24:49;101196.94;;;1.58;92.81
14295;BME280;7231;59.370;18.016;2022-11-23T01:27:17;101203.00;;;1.58;93.27
14295;BME280;7231;59.370;18.016;2022-11-23T01:29:45;101191.00;;;1.47;92.95
14295;BME280;7231;59.370;18.016;2022-11-23T01:32:15;101208.25;;;1.60;93.12
14295;BME280;7231;59.370;18.016;2022-11-23T01:34:42;101193.22;;;1.54;93.53
14295;BME280;7231;59.370;18.016;2022-11-23T01:37:10;101201.19;;;1.57;93.22
14295;BME280;7231;59.370;18.016;2022-11-23T01:39:38;101208.38;;;1.61;93.63
14295;BME280;7231;59.370;18.016;2022-11-23T01:42:06;101198.13;;;1.63;93.68
14295;BME280;7231;59.370;18.016;2022-11-23T01:44:40;101197.25;;;1.62;93.47
14295;BME280;7231;59.370;18.016;2022-11-23T01:47:09;101199.03;;;1.63;93.16
14295;BME280;7231;59.370;18.016;2022-11-23T01:49:41;101203.41;;;1.65;93.09
14295;BME280;7231;59.370;18.016;2022-11-23T01:52:13;101194.44;;;1.59;93.13
14295;BME280;7231;59.370;18.016;2022-11-23T01:54:44;101197.44;;;1.66;93.93
14295;BME280;7231;59.370;18.016;2022-11-23T01:57:18;101199.34;;;1.68;93.75
14295;BME280;7231;59.370;18.016;2022-11-23T01:59:48;101206.41;;;1.71;93.66
14295;BME280;7231;59.370;18.016;2022-11-23T02:02:18;101201.56;;;1.75;93.68
14295;BME280;7231;59.370;18.016;2022-11-23T02:04:48;101198.28;;;1.78;93.45
14295;BME280;7231;59.370;18.016;2022-11-23T02:07:18;101201.09;;;1.81;93.24
14295;BME280;7231;59.370;18.016;2022-11-23T02:09:47;101199.50;;;1.83;92.65
14295;BME280;7231;59.370;18.016;2022-11-23T02:12:15;101194.53;;;1.86;92.96
14295;BME280;7231;59.370;18.016;2022-11-23T02:14:43;101189.59;;;1.89;92.34
14295;BME280;7231;59.370;18.016;2022-11-23T02:17:12;101182.81;;;1.91;92.58
14295;BME280;7231;59.370;18.016;2022-11-23T02:19:50;101179.44;;;1.92;92.25
14295;BME280;7231;59.370;18.016;2022-11-23T02:22:24;101175.28;;;1.94;92.17
14295;BME280;7231;59.370;18.016;2022-11-23T02:24:54;101159.56;;;1.91;91.47
14295;BME280;7231;59.370;18.016;2022-11-23T02:27:24;101169.53;;;1.98;91.29
14295;BME280;7231;59.370;18.016;2022-11-23T02:29:54;101171.50;;;2.02;90.70
14295;BME280;7231;59.370;18.016;2022-11-23T02:32:24;101158.69;;;2.04;90.38
14295;BME280;7231;59.370;18.016;2022-11-23T02:34:52;101160.47;;;2.05;90.51
14295;BME280;7231;59.370;18.016;2022-11-23T02:37:20;101154.31;;;2.03;89.81
14295;BME280;7231;59.370;18.016;2022-11-23T02:39:50;101165.84;;;2.08;89.81
14295;BME280;7231;59.370;18.016;2022-11-23T02:42:18;101172.53;;;2.17;89.66
14295;BME280;7231;59.370;18.016;2022-11-23T02:44:53;101161.50;;;2.20;88.74
14295;BME280;7231;59.370;18.016;2022-11-23T02:47:26;101110.44;;;1.91;88.67
14295;BME280;7231;59.370;18.016;2022-11-23T02:49:54;101168.56;;;2.22;88.53
14295;BME280;7231;59.370;18.016;2022-11-23T02:52:22;101148.06;;;2.12;87.65
14295;BME280;7231;59.370;18.016;2022-11-23T02:54:50;101156.44;;;2.21;87.40
14295;BME280;7231;59.370;18.016;2022-11-23T02:57:17;101167.56;;;2.20;87.14
14295;BME280;7231;59.370;18.016;2022-11-23T02:59:45;101157.91;;;2.18;87.17
14295;BME280;7231;59.370;18.016;2022-11-23T03:02:15;101152.22;;;2.10;87.29
14295;BME280;7231;59.370;18.016;2022-11-23T03:04:42;101149.66;;;2.10;86.56
14295;BME280;7231;59.370;18.016;2022-11-23T03:07:10;101145.84;;;2.05;87.41
14295;BME280;7231;59.370;18.016;2022-11-23T03:09:38;101146.75;;;2.06;86.43
14295;BME280;7231;59.370;18.016;2022-11-23T03:12:06;101134.31;;;2.00;86.72
14295;BME280;7231;59.370;18.016;2022-11-23T03:14:34;101062.63;;;1.59;86.24
14295;BME280;7231;59.370;18.016;2022-11-23T03:17:04;101153.72;;;2.07;86.72
14295;BME280;7231;59.370;18.016;2022-11-23T03:19:35;101161.59;;;2.08;86.15
14295;BME280;7231;59.370;18.016;2022-11-23T03:22:03;101154.72;;;2.09;85.90
14295;BME280;7231;59.370;18.016;2022-11-23T03:24:31;101156.50;;;2.10;86.11
14295;BME280;7231;59.370;18.016;2022-11-23T03:26:59;101160.00;;;2.10;85.31
14295;BME280;7231;59.370;18.016;2022-11-23T03:29:27;101172.81;;;2.09;85.30
14295;BME280;7231;59.370;18.016;2022-11-23T03:31:56;101168.44;;;2.08;85.35
14295;BME280;7231;59.370;18.016;2022-11-23T03:34:24;101167.66;;;2.09;85.26
14295;BME280;7231;59.370;18.016;2022-11-23T03:36:53;101172.25;;;2.13;85.17
14295;BME280;7231;59.370;18.016;2022-11-23T03:39:21;101173.22;;;2.15;85.37
14295;BME280;7231;59.370;18.016;2022-11-23T03:41:49;101169.84;;;2.16;85.30
14295;BME280;7231;59.370;18.016;2022-11-23T03:44:17;101172.66;;;2.19;85.77
14295;BME280;7231;59.370;18.016;2022-11-23T03:46:45;101159.03;;;2.21;85.63
14295;BME280;7231;59.370;18.016;2022-11-23T03:49:13;101157.31;;;2.22;85.77
14295;BME280;7231;59.370;18.016;2022-11-23T03:51:41;101041.16;;;1.60;85.30
14295;BME280;7231;59.370;18.016;2022-11-23T03:54:10;101153.03;;;2.22;85.89
14295;BME280;7231;59.370;18.016;2022-11-23T03:56:38;101165.97;;;2.22;85.50
14295;BME280;7231;59.370;18.016;2022-11-23T03:59:06;101161.69;;;2.23;85.93
14295;BME280;7231;59.370;18.016;2022-11-23T04:01:34;101144.19;;;2.19;85.32
14295;BME280;7231;59.370;18.016;2022-11-23T04:04:02;101167.78;;;2.23;85.91
14295;BME280;7231;59.370;18.016;2022-11-23T04:06:29;101156.63;;;2.24;85.21
14295;BME280;7231;59.370;18.016;2022-11-23T04:08:57;101157.63;;;2.26;85.71
14295;BME280;7231;59.370;18.016;2022-11-23T04:11:29;101152.56;;;2.28;85.63
14295;BME280;7231;59.370;18.016;2022-11-23T04:13:57;101147.47;;;2.30;85.18
14295;BME280;7231;59.370;18.016;2022-11-23T04:16:25;101159.63;;;2.31;84.92
14295;BME280;7231;59.370;18.016;2022-11-23T04:18:53;101148.06;;;2.25;85.33
14295;BME280;7231;59.370;18.016;2022-11-23T04:21:21;101150.16;;;2.31;84.77
14295;BME280;7231;59.370;18.016;2022-11-23T04:23:48;101139.22;;;2.22;85.08
14295;BME280;7231;59.370;18.016;2022-11-23T04:26:16;101144.91;;;2.30;84.71
14295;BME280;7231;59.370;18.016;2022-11-23T04:28:46;101144.09;;;2.31;84.81
14295;BME280;7231;59.370;18.016;2022-11-23T04:31:13;101155.53;;;2.34;84.41
14295;BME280;7231;59.370;18.016;2022-11-23T04:33:41;101146.09;;;2.35;84.85
14295;BME280;7231;59.370;18.016;2022-11-23T04:36:09;101149.69;;;2.37;84.84
14295;BME280;7231;59.370;18.016;2022-11-23T04:38:37;101139.31;;;2.37;84.88
14295;BME280;7231;59.370;18.016;2022-11-23T04:41:05;101142.72;;;2.36;84.70
14295;BME280;7231;59.370;18.016;2022-11-23T04:43:33;101145.41;;;2.37;84.32
14295;BME280;7231;59.370;18.016;2022-11-23T04:46:02;101134.16;;;2.37;84.26
14295;BME280;7231;59.370;18.016;2022-11-23T04:48:30;101138.53;;;2.38;84.57
14295;BME280;7231;59.370;18.016;2022-11-23T04:50:58;101126.50;;;2.38;84.54
14295;BME280;7231;59.370;18.016;2022-11-23T04:53:26;101145.41;;;2.37;84.26
14295;BME280;7231;59.370;18.016;2022-11-23T04:55:54;101139.31;;;2.37;84.26
14295;BME280;7231;59.370;18.016;2022-11-23T04:58:22;101135.03;;;2.37;84.40
14295;BME280;7231;59.370;18.016;2022-11-23T05:00:53;101140.22;;;2.37;84.10
14295;BME280;7231;59.370;18.016;2022-11-23T05:03:22;101128.06;;;2.36;84.04
14295;BME280;7231;59.370;18.016;2022-11-23T05:05:50;101124.59;;;2.36;84.07
14295;BME280;7231;59.370;18.016;2022-11-23T05:08:18;101127.19;;;2.36;84.34
14295;BME280;7231;59.370;18.016;2022-11-23T05:10:46;101113.06;;;2.31;84.45
14295;BME280;7231;59.370;18.016;2022-11-23T05:13:14;101116.03;;;2.37;84.44
14295;BME280;7231;59.370;18.016;2022-11-23T05:15:42;101120.31;;;2.36;84.18
14295;BME280;7231;59.370;18.016;2022-11-23T05:18:10;101115.75;;;2.32;84.38
14295;BME280;7231;59.370;18.016;2022-11-23T05:20:40;101080.00;;;2.13;84.64
14295;BME280;7231;59.370;18.016;2022-11-23T05:23:08;101123.81;;;2.37;84.35
14295;BME280;7231;59.370;18.016;2022-11-23T05:25:37;101122.91;;;2.36;85.05
14295;BME280;7231;59.370;18.016;2022-11-23T05:28:04;101110.06;;;2.24;84.65
14295;BME280;7231;59.370;18.016;2022-11-23T05:30:52;101120.41;;;2.38;84.58
14295;BME280;7231;59.370;18.016;2022-11-23T05:33:20;101115.25;;;2.38;85.12
14295;BME280;7231;59.370;18.016;2022-11-23T05:35:50;101115.25;;;2.38;85.37
14295;BME280;7231;59.370;18.016;2022-11-23T05:38:18;101114.16;;;2.34;85.22
14295;BME280;7231;59.370;18.016;2022-11-23T05:40:45;101114.03;;;2.33;84.99
14295;BME280;7231;59.370;18.016;2022-11-23T05:43:13;101119.72;;;2.40;85.15
14295;BME280;7231;59.370;18.016;2022-11-23T05:45:41;101128.19;;;2.38;85.68
14295;BME280;7231;59.370;18.016;2022-11-23T05:48:09;101119.81;;;2.28;85.34
14295;BME280;7231;59.370;18.016;2022-11-23T05:50:37;101136.84;;;2.38;85.70
14295;BME280;7231;59.370;18.016;2022-11-23T05:53:07;101134.25;;;2.38;85.85
14295;BME280;7231;59.370;18.016;2022-11-23T05:55:36;101140.22;;;2.37;86.00
14295;BME280;7231;59.370;18.016;2022-11-23T05:58:04;101145.50;;;2.39;86.07
14295;BME280;7231;59.370;18.016;2022-11-23T06:00:32;101156.66;;;2.38;86.17
14295;BME280;7231;59.370;18.016;2022-11-23T06:03:00;101144.78;;;2.28;86.00
14295;BME280;7231;59.370;18.016;2022-11-23T06:05:29;101155.94;;;2.27;86.70
14295;BME280;7231;59.370;18.016;2022-11-23T06:07:57;101163.41;;;2.22;87.25
14295;BME280;7231;59.370;18.016;2022-11-23T06:10:26;101167.38;;;2.17;87.52
14295;BME280;7231;59.370;18.016;2022-11-23T06:12:54;101174.50;;;2.08;87.68
14295;BME280;7231;59.370;18.016;2022-11-23T06:15:23;101177.91;;;2.07;88.02
14295;BME280;7231;59.370;18.016;2022-11-23T06:17:51;101168.94;;;2.02;89.23
14295;BME280;7231;59.370;18.016;2022-11-23T06:20:19;101158.75;;;1.92;89.12
14295;BME280;7231;59.370;18.016;2022-11-23T06:22:50;101162.34;;;1.94;89.86
14295;BME280;7231;59.370;18.016;2022-11-23T06:25:18;101161.13;;;1.89;90.36
14295;BME280;7231;59.370;18.016;2022-11-23T06:27:53;101165.91;;;1.83;90.66
14295;BME280;7231;59.370;18.016;2022-11-23T06:30:21;101161.31;;;1.79;91.02
14295;BME280;7231;59.370;18.016;2022-11-23T06:32:49;101167.16;;;1.76;91.42
14295;BME280;7231;59.370;18.016;2022-11-23T06:35:18;101170.44;;;1.74;91.95
14295;BME280;7231;59.370;18.016;2022-11-23T06:37:46;101169.44;;;1.72;92.50
14295;BME280;7231;59.370;18.016;2022-11-23T06:40:15;101152.19;;;1.59;92.84
14295;BME280;7231;59.370;18.016;2022-11-23T06:42:43;101183.84;;;1.68;92.81
14295;BME280;7231;59.370;18.016;2022-11-23T06:45:13;101175.19;;;1.68;93.86
14295;BME280;7231;59.370;18.016;2022-11-23T06:47:41;101184.75;;;1.69;94.12
14295;BME280;7231;59.370;18.016;2022-11-23T06:50:10;101189.69;;;1.66;94.31
14295;BME280;7231;59.370;18.016;2022-11-23T06:52:39;101194.88;;;1.66;94.29
14295;BME280;7231;59.370;18.016;2022-11-23T06:55:08;101190.50;;;1.65;94.93
14295;BME280;7231;59.370;18.016;2022-11-23T06:57:36;101196.66;;;1.67;95.26
14295;BME280;7231;59.370;18.016;2022-11-23T07:00:05;101189.50;;;1.62;95.17
14295;BME280;7231;59.370;18.016;2022-11-23T07:02:34;101183.63;;;1.65;95.77
14295;BME280;7231;59.370;18.016;2022-11-23T07:05:02;101187.13;;;1.66;95.66
14295;BME280;7231;59.370;18.016;2022-11-23T07:07:30;101119.97;;;1.29;95.68
14295;BME280;7231;59.370;18.016;2022-11-23T07:09:58;101180.16;;;1.65;95.90
14295;BME280;7231;59.370;18.016;2022-11-23T07:12:32;101175.47;;;1.59;96.42
14295;BME280;7231;59.370;18.016;2022-11-23T07:15:00;101187.13;;;1.66;96.99
14295;BME280;7231;59.370;18.016;2022-11-23T07:17:28;101177.56;;;1.65;97.06
14295;BME280;7231;59.370;18.016;2022-11-23T07:19:57;101177.78;;;1.68;97.53
14295;BME280;7231;59.370;18.016;2022-11-23T07:22:25;101179.69;;;1.70;97.17
14295;BME280;7231;59.370;18.016;2022-11-23T07:24:53;101174.63;;;1.72;97.73
14295;BME280;7231;59.370;18.016;2022-11-23T07:27:21;101160.38;;;1.65;98.10
14295;BME280;7231;59.370;18.016;2022-11-23T07:29:49;101177.41;;;1.75;98.13
14295;BME280;7231;59.370;18.016;2022-11-23T07:32:17;101178.31;;;1.75;98.43
14295;BME280;7231;59.370;18.016;2022-11-23T07:34:45;101171.34;;;1.74;98.77
14295;BME280;7231;59.370;18.016;2022-11-23T07:37:14;101171.06;;;1.83;98.62
14295;BME280;7231;59.370;18.016;2022-11-23T07:39:42;101169.47;;;1.85;99.16
14295;BME280;7231;59.370;18.016;2022-11-23T07:42:26;101173.97;;;1.87;98.69
14295;BME280;7231;59.370;18.016;2022-11-23T07:45:07;101161.03;;;1.87;98.58
14295;BME280;7231;59.370;18.016;2022-11-23T07:47:35;101158.56;;;1.89;99.15
14295;BME280;7231;59.370;18.016;2022-11-23T07:50:05;101157.88;;;1.91;98.84
14295;BME280;7231;59.370;18.016;2022-11-23T07:52:35;101169.22;;;1.93;99.18
14295;BME280;7231;59.370;18.016;2022-11-23T07:55:04;101163.34;;;1.96;99.57
14295;BME280;7231;59.370;18.016;2022-11-23T07:57:32;101161.75;;;1.98;99.93
14295;BME280;7231;59.370;18.016;2022-11-23T08:00:00;101162.75;;;2.00;99.79
14295;BME280;7231;59.370;18.016;2022-11-23T08:02:28;101162.88;;;2.02;99.59
14295;BME280;7231;59.370;18.016;2022-11-23T08:04:56;101165.25;;;1.99;99.39
14295;BME280;7231;59.370;18.016;2022-11-23T08:07:24;101178.78;;;2.08;99.43
14295;BME280;7231;59.370;18.016;2022-11-23T08:09:53;101178.91;;;2.09;99.86
14295;BME280;7231;59.370;18.016;2022-11-23T08:12:21;101169.44;;;2.10;99.82
14295;BME280;7231;59.370;18.016;2022-11-23T08:14:49;101173.03;;;2.12;99.25
14295;BME280;7231;59.370;18.016;2022-11-23T08:17:17;101168.53;;;2.09;99.43
14295;BME280;7231;59.370;18.016;2022-11-23T08:19:45;101165.84;;;2.08;99.46
14295;BME280;7231;59.370;18.016;2022-11-23T08:22:13;101182.38;;;2.10;98.72
14295;BME280;7231;59.370;18.016;2022-11-23T08:24:42;101141.72;;;1.82;98.58
14295;BME280;7231;59.370;18.016;2022-11-23T08:27:11;101187.34;;;2.07;98.89
14295;BME280;7231;59.370;18.016;2022-11-23T08:29:39;101188.72;;;2.02;98.68
14295;BME280;7231;59.370;18.016;2022-11-23T08:32:07;101193.69;;;1.99;98.71
14295;BME280;7231;59.370;18.016;2022-11-23T08:34:35;101191.00;;;1.97;99.37
14295;BME280;7231;59.370;18.016;2022-11-23T08:37:02;101192.59;;;1.95;99.59
14295;BME280;7231;59.370;18.016;2022-11-23T08:39:30;101173.75;;;1.84;99.08
14295;BME280;7231;59.370;18.016;2022-11-23T08:41:58;101187.78;;;1.88;98.97
14295;BME280;7231;59.370;18.016;2022-11-23T08:44:27;101184.19;;;1.86;99.59
14295;BME280;7231;59.370;18.016;2022-11-23T08:46:56;101183.19;;;1.84;99.94
14295;BME280;7231;59.370;18.016;2022-11-23T08:49:24;101180.63;;;1.84;99.54
14295;BME280;7231;59.370;18.016;2022-11-23T08:51:52;101179.81;;;1.85;100.00
14295;BME280;7231;59.370;18.016;2022-11-23T08:54:20;101183.50;;;1.88;100.00
14295;BME280;7231;59.370;18.016;2022-11-23T08:56:49;101184.41;;;1.89;100.00
14295;BME280;7231;59.370;18.016;2022-11-23T08:59:17;101181.81;;;1.89;100.00
14295;BME280;7231;59.370;18.016;2022-11-23T09:01:47;101175.16;;;1.92;100.00
14295;BME280;7231;59.370;18.016;2022-11-23T09:04:15;101184.03;;;1.96;100.00
14295;BME280;7231;59.370;18.016;2022-11-23T09:06:46;101183.44;;;2.00;100.00
14295;BME280;7231;59.370;18.016;2022-11-23T09:09:14;101175.91;;;2.03;100.00
14295;BME280;7231;59.370;18.016;2022-11-23T09:11:42;101173.72;;;2.09;100.00
14295;BME280;7231;59.370;18.016;2022-11-23T09:14:10;101170.66;;;2.15;100.00
14295;BME280;7231;59.370;18.016;2022-11-23T09:16:40;101169.38;;;2.21;100.00
14295;BME280;7231;59.370;18.016;2022-11-23T09:19:12;101145.69;;;2.15;100.00
14295;BME280;7231;59.370;18.016;2022-11-23T09:21:40;101152.75;;;2.18;100.00
14295;BME280;7231;59.370;18.016;2022-11-23T09:24:09;101157.13;;;2.19;100.00
14295;BME280;7231;59.370;18.016;2022-11-23T09:26:38;101168.47;;;2.34;100.00
14295;BME280;7231;59.370;18.016;2022-11-23T09:29:07;101155.53;;;2.34;100.00
14295;BME280;7231;59.370;18.016;2022-11-23T09:31:35;101156.53;;;2.36;100.00
14295;BME280;7231;59.370;18.016;2022-11-23T09:34:03;101171.28;;;2.50;100.00
14295;BME280;7231;59.370;18.016;2022-11-23T09:36:33;101178.56;;;2.56;100.00
14295;BME280;7231;59.370;18.016;2022-11-23T09:39:00;101164.31;;;2.49;100.00
14295;BME280;7231;59.370;18.016;2022-11-23T09:44:40;101175.25;;;2.58;100.00
14295;BME280;7231;59.370;18.016;2022-11-23T09:47:24;101177.06;;;2.59;100.00
14295;BME280;7231;59.370;18.016;2022-11-23T09:50:00;101175.84;;;2.54;100.00
14295;BME280;7231;59.370;18.016;2022-11-23T09:52:33;101175.97;;;2.56;100.00
14295;BME280;7231;59.370;18.016;2022-11-23T09:55:06;101169.78;;;2.54;100.00
14295;BME280;7231;59.370;18.016;2022-11-23T09:57:38;101146.50;;;2.41;100.00
14295;BME280;7231;59.370;18.016;2022-11-23T10:00:16;101173.38;;;2.56;100.00
14295;BME280;7231;59.370;18.016;2022-11-23T10:02:45;101177.66;;;2.55;100.00
14295;BME280;7231;59.370;18.016;2022-11-23T10:05:16;101170.69;;;2.54;100.00
14295;BME280;7231;59.370;18.016;2022-11-23T10:07:54;101171.78;;;2.58;100.00
14295;BME280;7231;59.370;18.016;2022-11-23T10:10:38;101171.78;;;2.58;100.00
14295;BME280;7231;59.370;18.016;2022-11-23T10:13:18;101182.41;;;2.63;100.00
14295;BME280;7231;59.370;18.016;2022-11-23T10:18:47;101170.00;;;2.57;100.00
14295;BME280;7231;59.370;18.016;2022-11-23T10:21:25;101175.25;;;2.58;100.00
14295;BME280;7231;59.370;18.016;2022-11-23T10:24:04;101169.69;;;2.52;100.00
14295;BME280;7231;59.370;18.016;2022-11-23T10:26:39;101167.50;;;2.45;100.00
14295;BME280;7231;59.370;18.016;2022-11-23T10:29:12;101183.91;;;2.46;100.00
14295;BME280;7231;59.370;18.016;2022-11-23T10:31:44;101174.84;;;2.39;100.00
14295;BME280;7231;59.370;18.016;2022-11-23T10:34:25;101180.13;;;2.41;100.00
14295;BME280;7231;59.370;18.016;2022-11-23T10:36:57;101176.56;;;2.39;100.00
14295;BME280;7231;59.370;18.016;2022-11-23T10:39:27;101191.19;;;2.38;100.00
14295;BME280;7231;59.370;18.016;2022-11-23T10:42:00;101166.50;;;2.30;100.00
14295;BME280;7231;59.370;18.016;2022-11-23T10:44:34;101167.69;;;2.35;100.00
14295;BME280;7231;59.370;18.016;2022-11-23T10:47:04;101173.66;;;2.34;100.00
14295;BME280;7231;59.370;18.016;2022-11-23T10:49:34;101163.22;;;2.33;100.00
14295;BME280;7231;59.370;18.016;2022-11-23T10:52:03;101110.13;;;2.00;100.00
14295;BME280;7231;59.370;18.016;2022-11-23T10:54:35;101147.19;;;2.25;100.00
14295;BME280;7231;59.370;18.016;2022-11-23T10:57:21;101150.38;;;2.34;100.00
14295;BME280;7231;59.370;18.016;2022-11-23T10:59:57;101159.81;;;2.34;100.00
14295;BME280;7231;59.370;18.016;2022-11-23T11:02:26;101158.94;;;2.33;100.00
14295;BME280;7231;59.370;18.016;2022-11-23T11:05:12;101152.16;;;2.35;100.00
14295;BME280;7231;59.370;18.016;2022-11-23T11:07:41;101156.66;;;2.38;100.00
14295;BME280;7231;59.370;18.016;2022-11-23T11:13:23;101149.38;;;2.45;100.00
14295;BME280;7231;59.370;18.016;2022-11-23T11:15:56;101151.47;;;2.51;100.00
14295;BME280;7231;59.370;18.016;2022-11-23T11:18:27;101139.63;;;2.54;100.00
14295;BME280;7231;59.370;18.016;2022-11-23T11:20:58;101137.94;;;2.55;100.00
14295;BME280;7231;59.370;18.016;2022-11-23T11:23:28;101089.25;;;2.23;100.00
14295;BME280;7231;59.370;18.016;2022-11-23T11:26:06;101138.72;;;2.54;100.00
14295;BME280;7231;59.370;18.016;2022-11-23T11:28:39;101143.91;;;2.54;100.00
14295;BME280;7231;59.370;18.016;2022-11-23T11:31:34;101138.63;;;2.52;100.00
14295;BME280;7231;59.370;18.016;2022-11-23T11:34:10;101130.28;;;2.43;100.00
14295;BME280;7231;59.370;18.016;2022-11-23T11:36:48;101148.69;;;2.48;100.00
14295;BME280;7231;59.370;18.016;2022-11-23T11:39:21;101147.78;;;2.47;100.00
14295;BME280;7231;59.370;18.016;2022-11-23T11:41:55;101146.50;;;2.41;100.00
14295;BME280;7231;59.370;18.016;2022-11-23T11:44:26;101089.84;;;2.06;100.00
14295;BME280;7231;59.370;18.016;2022-11-23T11:47:03;101143.91;;;2.41;100.00
14295;BME280;7231;59.370;18.016;2022-11-23T11:49:34;101044.28;;;1.81;100.00
14295;BME280;7231;59.370;18.016;2022-11-23T11:52:10;101154.25;;;2.41;100.00
14295;BME280;7231;59.370;18.016;2022-11-23T11:54:45;101143.81;;;2.39;100.00
14295;BME280;7231;59.370;18.016;2022-11-23T11:57:19;101146.28;;;2.38;100.00
14295;BME280;7231;59.370;18.016;2022-11-23T11:59:53;101116.94;;;2.24;100.00
14295;BME280;7231;59.370;18.016;2022-11-23T12:02:25;101141.72;;;2.34;100.00
14295;BME280;7231;59.370;18.016;2022-11-23T12:05:00;101126.28;;;2.22;100.00
14295;BME280;7231;59.370;18.016;2022-11-23T12:07:32;101133.53;;;2.27;100.00
14295;BME280;7231;59.370;18.016;2022-11-23T12:10:10;101133.53;;;2.27;100.00
14295;BME280;7231;59.370;18.016;2022-11-23T12:12:39;101147.28;;;2.26;100.00
14295;BME280;7231;59.370;18.016;2022-11-23T12:15:16;101147.47;;;2.30;100.00
14295;BME280;7231;59.370;18.016;2022-11-23T12:18:24;101140.50;;;2.28;100.00
14295;BME280;7231;59.370;18.016;2022-11-23T12:21:01;101117.81;;;2.11;100.00
14295;BME280;7231;59.370;18.016;2022-11-23T12:23:41;101136.72;;;2.23;100.00
14295;BME280;7231;59.370;18.016;2022-11-23T12:26:18;101150.16;;;2.31;100.00
14295;BME280;7231;59.370;18.016;2022-11-23T12:29:13;101152.25;;;2.37;100.00
14295;BME280;7231;59.370;18.016;2022-11-23T12:31:46;101148.09;;;2.39;100.00
14295;BME280;7231;59.370;18.016;2022-11-23T12:34:38;101148.09;;;2.39;100.00
14295;BME280;7231;59.370;18.016;2022-11-23T12:37:33;101147.88;;;2.36;100.00
14295;BME280;7231;59.370;18.016;2022-11-23T12:40:16;101133.53;;;2.27;100.00
14295;BME280;7231;59.370;18.016;2022-11-23T12:42:48;101147.97;;;2.37;100.00
14295;BME280;7231;59.370;18.016;2022-11-23T12:45:29;101148.09;;;2.39;100.00
14295;BME280;7231;59.370;18.016;2022-11-23T12:48:17;101147.09;;;2.37;100.00
14295;BME280;7231;59.370;18.016;2022-11-23T12:50:53;101133.94;;;2.34;100.00
14295;BME280;7231;59.370;18.016;2022-11-23T12:53:36;101134.84;;;2.34;100.00
14295;BME280;7231;59.370;18.016;2022-11-23T12:56:14;101137.34;;;2.33;100.00
14295;BME280;7231;59.370;18.016;2022-11-23T12:58:48;101138.22;;;2.33;100.00
14295;BME280;7231;59.370;18.016;2022-11-23T13:01:19;101142.72;;;2.36;100.00
14295;BME280;7231;59.370;18.016;2022-11-23T13:07:05;101129.56;;;2.33;100.00
14295;BME280;7231;59.370;18.016;2022-11-23T13:10:14;101120.50;;;2.26;100.00
14295;BME280;7231;59.370;18.016;2022-11-23T13:13:08;101135.25;;;2.40;100.00
14295;BME280;7231;59.370;18.016;2022-11-23T13:16:05;101126.59;;;2.40;100.00
14295;BME280;7231;59.370;18.016;2022-11-23T13:18:45;101136.94;;;2.40;100.00
14295;BME280;7231;59.370;18.016;2022-11-23T13:21:23;101125.59;;;2.38;100.00
14295;BME280;7231;59.370;18.016;2022-11-23T13:23:54;101136.94;;;2.40;100.00
14295;BME280;7231;59.370;18.016;2022-11-23T13:26:23;101119.81;;;2.28;100.00
14295;BME280;7231;59.370;18.016;2022-11-23T13:28:52;101140.63;;;2.43;100.00